createdAt,value
2023-04-13T00:00:17.824Z,99806.75
2023-04-13T00:02:46.702Z,99805.41
2023-04-13T00:05:15.022Z,99811.28
2023-04-13T00:07:43.402Z,99805.16
2023-04-13T00:10:11.742Z,99811.25
2023-04-13T00:12:41.060Z,99806.88
2023-04-13T00:15:11.258Z,99789.84
2023-04-13T00:17:39.236Z,99813.44
2023-04-13T00:20:13.207Z,99805.28
2023-04-13T00:22:41.329Z,99800.63
2023-04-13T00:25:10.662Z,99803.03
2023-04-13T00:27:39.315Z,99801.81
2023-04-13T00:30:09.871Z,99803.34
2023-04-13T00:32:43.053Z,99788.94
2023-04-13T00:35:12.488Z,99792.38
2023-04-13T00:37:43.261Z,99792.75
2023-04-13T00:40:13.412Z,99777.91
2023-04-13T00:42:41.311Z,99804.88
2023-04-13T00:45:09.970Z,99793.16
2023-04-13T00:47:41.772Z,99797.88
2023-04-13T00:50:10.482Z,99798.84
2023-04-13T00:52:39.314Z,99765.91
2023-04-13T00:55:08.254Z,99795.47
2023-04-13T00:57:36.772Z,99791.69
2023-04-13T01:00:08.628Z,99805.25
2023-04-13T01:02:37.120Z,99796.91
2023-04-13T01:05:07.323Z,99799.66
2023-04-13T01:07:41.863Z,99800.03
2023-04-13T01:10:17.130Z,99804.28
2023-04-13T01:12:52.549Z,99809.34
2023-04-13T01:15:21.113Z,99812.75
2023-04-13T01:17:57.016Z,99804.91
2023-04-13T01:20:29.210Z,99792.66
2023-04-13T01:22:59.708Z,99804.38
2023-04-13T01:25:38.397Z,99797.66
2023-04-13T01:28:09.923Z,99798.81
2023-04-13T01:30:39.463Z,99805.00
2023-04-13T01:33:08.819Z,99800.81
2023-04-13T01:35:38.166Z,99801.97
2023-04-13T01:38:08.776Z,99809.72
2023-04-13T01:40:41.121Z,99806.56
2023-04-13T01:43:10.486Z,99816.91
2023-04-13T01:45:47.501Z,99839.09
2023-04-13T01:48:21.672Z,99821.09
2023-04-13T01:50:52.481Z,99833.19
2023-04-13T01:53:23.064Z,99831.06
2023-04-13T01:55:51.161Z,99818.13
2023-04-13T01:58:21.888Z,99822.47
2023-04-13T02:00:50.227Z,99822.22
2023-04-13T02:03:18.322Z,99827.47
2023-04-13T02:05:46.317Z,99823.38
2023-04-13T02:08:14.265Z,99825.25
2023-04-13T02:10:43.090Z,99829.84
2023-04-13T02:13:11.009Z,99828.91
2023-04-13T02:15:41.572Z,99821.88
2023-04-13T02:18:10.667Z,99837.03
2023-04-13T02:20:43.869Z,99826.97
2023-04-13T02:23:14.813Z,99835.38
2023-04-13T02:25:47.605Z,99842.75
2023-04-13T02:28:17.896Z,99841.75
2023-04-13T02:30:47.558Z,99825.28
2023-04-13T02:33:15.646Z,99813.97
2023-04-13T02:35:43.767Z,99837.28
2023-04-13T02:38:11.808Z,99795.34
2023-04-13T02:40:39.726Z,99842.84
2023-04-13T02:43:07.618Z,99836.47
2023-04-13T02:45:35.545Z,99851.53
2023-04-13T02:48:05.604Z,99848.66
2023-04-13T02:50:33.516Z,99854.59
2023-04-13T02:53:01.562Z,99856.16
2023-04-13T02:55:29.516Z,99857.16
2023-04-13T02:57:58.072Z,99854.59
2023-04-13T03:00:26.310Z,99848.59
2023-04-13T03:02:54.882Z,99856.50
2023-04-13T03:05:24.271Z,99848.66
2023-04-13T03:07:52.197Z,99854.75
2023-04-13T03:10:20.349Z,99859.00
2023-04-13T03:12:48.943Z,99865.47
2023-04-13T03:15:18.307Z,99869.72
2023-04-13T03:17:46.717Z,99858.84
2023-04-13T03:20:16.701Z,99864.94
2023-04-13T03:22:46.215Z,99872.31
2023-04-13T03:25:14.181Z,99885.69
2023-04-13T03:27:42.072Z,99880.75
2023-04-13T03:30:11.065Z,99871.78
2023-04-13T03:32:39.073Z,99884.94
2023-04-13T03:35:07.474Z,99883.63
2023-04-13T03:37:40.545Z,99883.03
2023-04-13T03:40:11.299Z,99896.59
2023-04-13T03:42:39.529Z,99900.44
2023-04-13T03:45:08.234Z,99902.91
2023-04-13T03:47:36.209Z,99899.75
2023-04-13T03:50:04.562Z,99899.81
2023-04-13T03:52:32.611Z,99902.78
2023-04-13T03:55:01.043Z,99904.09
2023-04-13T03:57:30.859Z,99912.09
2023-04-13T03:59:58.832Z,99916.66
2023-04-13T04:02:27.490Z,99920.91
2023-04-13T04:04:56.184Z,99923.34
2023-04-13T04:07:24.127Z,99913.75
2023-04-13T04:09:52.159Z,99914.66
2023-04-13T04:12:20.062Z,99910.50
2023-04-13T04:14:49.427Z,99911.94
2023-04-13T04:17:17.365Z,99903.59
2023-04-13T04:19:45.309Z,99927.91
2023-04-13T04:22:14.085Z,99933.06
2023-04-13T04:24:43.212Z,99929.31
2023-04-13T04:27:14.432Z,99919.25
2023-04-13T04:29:49.117Z,99921.91
2023-04-13T04:32:18.583Z,99936.91
2023-04-13T04:34:46.855Z,99932.91
2023-04-13T04:37:20.723Z,99940.06
2023-04-13T04:39:49.124Z,99947.22
2023-04-13T04:42:18.966Z,99943.53
2023-04-13T04:44:50.446Z,99937.28
2023-04-13T04:47:19.938Z,99943.06
2023-04-13T04:49:47.937Z,99930.25
2023-04-13T04:52:15.890Z,99945.03
2023-04-13T04:54:43.956Z,99939.97
2023-04-13T04:57:12.418Z,99938.13
2023-04-13T04:59:40.957Z,99948.00
2023-04-13T05:02:09.257Z,99940.91
2023-04-13T05:04:39.984Z,99949.47
2023-04-13T05:07:08.252Z,99947.97
2023-04-13T05:09:37.112Z,99952.97
2023-04-13T05:12:05.349Z,99942.91
2023-04-13T05:14:33.309Z,99947.50
2023-04-13T05:17:02.233Z,99948.13
2023-04-13T05:19:32.760Z,99945.66
2023-04-13T05:22:02.474Z,99947.72
2023-04-13T05:24:31.189Z,99949.28
2023-04-13T05:26:59.111Z,99951.88
2023-04-13T05:29:27.000Z,99946.31
2023-04-13T05:31:54.996Z,99948.09
2023-04-13T05:34:22.973Z,99946.66
2023-04-13T05:36:50.860Z,99938.13
2023-04-13T05:39:20.568Z,99954.06
2023-04-13T05:41:48.527Z,99959.13
2023-04-13T05:44:16.423Z,99956.81
2023-04-13T05:46:44.365Z,99953.16
2023-04-13T05:49:12.306Z,99956.88
2023-04-13T05:51:40.265Z,99959.47
2023-04-13T05:54:10.045Z,99961.13
2023-04-13T05:56:39.323Z,99960.22
2023-04-13T05:59:07.282Z,99957.47
2023-04-13T06:01:36.519Z,99962.34
2023-04-13T06:04:06.132Z,99958.66
2023-04-13T06:06:36.043Z,99955.56
2023-04-13T06:09:05.778Z,99957.66
2023-04-13T06:11:33.713Z,99965.00
2023-04-13T06:14:03.635Z,99963.59
2023-04-13T06:16:31.640Z,99969.75
2023-04-13T06:19:01.260Z,99963.84
2023-04-13T06:21:30.231Z,99967.16
2023-04-13T06:23:58.161Z,99974.94
2023-04-13T06:26:26.272Z,99972.69
2023-04-13T06:28:54.482Z,99983.88
2023-04-13T06:31:27.637Z,99965.78
2023-04-13T06:33:56.883Z,99971.25
2023-04-13T06:36:24.912Z,99971.78
2023-04-13T06:38:53.198Z,99983.28
2023-04-13T06:41:21.107Z,99977.00
2023-04-13T06:43:49.038Z,99981.66
2023-04-13T06:46:19.570Z,99984.88
2023-04-13T06:48:49.955Z,99987.59
2023-04-13T06:51:17.916Z,99989.28
2023-04-13T06:53:45.830Z,99995.34
2023-04-13T06:56:13.729Z,100000.94
2023-04-13T06:58:41.634Z,99997.06
2023-04-13T07:01:09.733Z,99996.00
2023-04-13T07:03:37.808Z,99989.63
2023-04-13T07:06:09.270Z,99982.06
2023-04-13T07:08:37.206Z,99986.75
2023-04-13T07:11:05.270Z,99985.53
2023-04-13T07:13:33.194Z,99990.09
2023-04-13T07:16:01.115Z,99978.94
2023-04-13T07:18:29.104Z,99983.75
2023-04-13T07:20:57.117Z,99990.28
2023-04-13T07:23:26.404Z,99990.81
2023-04-13T07:25:54.323Z,99997.31
2023-04-13T07:28:22.270Z,99985.38
2023-04-13T07:30:50.192Z,99987.16
2023-04-13T07:33:18.144Z,99984.22
2023-04-13T07:35:46.348Z,99982.06
2023-04-13T07:38:14.932Z,99979.53
2023-04-13T07:40:44.228Z,99986.53
2023-04-13T07:43:12.179Z,99980.69
2023-04-13T07:45:40.077Z,99987.53
2023-04-13T07:48:08.312Z,99981.09
2023-04-13T07:50:41.857Z,99979.75
2023-04-13T07:53:09.799Z,99983.34
2023-04-13T07:55:38.216Z,99988.97
2023-04-13T07:58:07.582Z,99988.28
2023-04-13T08:00:35.712Z,99983.03
2023-04-13T08:03:03.805Z,99983.16
2023-04-13T08:05:31.940Z,99976.88
2023-04-13T08:07:59.917Z,99981.94
2023-04-13T08:10:27.872Z,99978.25
2023-04-13T08:12:55.766Z,99980.59
2023-04-13T08:15:26.382Z,99968.72
2023-04-13T08:17:54.390Z,99969.03
2023-04-13T08:20:22.396Z,99967.22
2023-04-13T08:22:50.417Z,99966.28
2023-04-13T08:25:18.581Z,99977.28
2023-04-13T08:27:46.499Z,99968.91
2023-04-13T08:30:14.709Z,99952.94
2023-04-13T08:32:44.127Z,99962.63
2023-04-13T08:35:12.571Z,99975.31
2023-04-13T08:37:40.685Z,99982.63
2023-04-13T08:40:12.326Z,99975.91
2023-04-13T08:42:40.294Z,99971.88
2023-04-13T08:45:09.546Z,99967.59
2023-04-13T08:47:37.799Z,99969.25
2023-04-13T08:50:09.162Z,99962.03
2023-04-13T08:52:38.004Z,99952.13
2023-04-13T08:55:06.959Z,99958.47
2023-04-13T08:57:35.670Z,99966.47
2023-04-13T09:00:16.652Z,99957.69
2023-04-13T09:03:00.247Z,99958.75
2023-04-13T09:05:39.478Z,99954.47
2023-04-13T09:08:08.363Z,99960.16
2023-04-13T09:10:36.649Z,99945.41
2023-04-13T09:13:04.936Z,99948.03
2023-04-13T09:15:33.551Z,99949.19
2023-04-13T09:18:11.404Z,99948.25
2023-04-13T09:20:41.396Z,99950.91
2023-04-13T09:23:16.315Z,99933.53
2023-04-13T09:25:45.486Z,99942.09
2023-04-13T09:28:20.266Z,99934.59
2023-04-13T09:30:48.675Z,99934.25
2023-04-13T09:33:17.030Z,99938.16
2023-04-13T09:35:47.055Z,99939.22
2023-04-13T09:38:16.930Z,99930.25
2023-04-13T09:40:54.374Z,99931.38
2023-04-13T09:43:22.471Z,99931.47
2023-04-13T09:45:51.006Z,99926.38
2023-04-13T09:48:20.823Z,99926.50
2023-04-13T09:51:02.012Z,99928.31
2023-04-13T09:53:42.536Z,99923.63
2023-04-13T09:56:10.934Z,99921.41
2023-04-13T09:58:43.627Z,99915.13
2023-04-13T10:01:11.764Z,99920.00
2023-04-13T10:03:40.142Z,99911.84
2023-04-13T10:06:10.474Z,99912.31
2023-04-13T10:08:39.269Z,99909.06
2023-04-13T10:11:13.300Z,99902.41
2023-04-13T10:13:49.389Z,99908.84
2023-04-13T10:16:40.532Z,99908.41
2023-04-13T10:19:12.698Z,99901.81
2023-04-13T10:21:46.276Z,99897.22
2023-04-13T10:24:15.849Z,99901.97
2023-04-13T10:26:45.229Z,99906.75
2023-04-13T10:29:15.082Z,99897.94
2023-04-13T10:31:48.177Z,99891.94
2023-04-13T10:34:26.505Z,99891.06
2023-04-13T10:36:58.609Z,99899.47
2023-04-13T10:39:27.879Z,99885.50
2023-04-13T10:42:03.269Z,99883.88
2023-04-13T10:44:42.825Z,99891.78
2023-04-13T10:47:11.505Z,99886.84
2023-04-13T10:49:41.038Z,99887.16
2023-04-13T10:52:11.611Z,99889.47
2023-04-13T10:54:40.697Z,99889.25
2023-04-13T10:57:09.887Z,99884.75
2023-04-13T11:02:17.904Z,99891.00
2023-04-13T11:04:48.131Z,99883.25
2023-04-13T11:07:19.853Z,99873.28
2023-04-13T11:09:50.746Z,99870.84
2023-04-13T11:12:19.786Z,99865.09
2023-04-13T11:14:48.042Z,99873.22
2023-04-13T11:17:17.796Z,99880.53
2023-04-13T11:19:50.579Z,99873.63
2023-04-13T11:22:23.186Z,99873.22
2023-04-13T11:24:52.410Z,99862.66
2023-04-13T11:27:21.833Z,99845.94
2023-04-13T11:29:59.217Z,99860.16
2023-04-13T11:32:28.186Z,99871.38
2023-04-13T11:35:06.489Z,99868.91
2023-04-13T11:37:38.615Z,99874.22
2023-04-13T11:40:14.693Z,99860.25
2023-04-13T11:42:45.381Z,99856.78
2023-04-13T11:45:15.858Z,99845.88
2023-04-13T11:47:44.484Z,99860.09
2023-04-13T11:50:15.423Z,99853.78
2023-04-13T11:52:46.746Z,99853.91
2023-04-13T11:55:23.070Z,99859.81
2023-04-13T11:57:53.148Z,99852.88
2023-04-13T12:00:26.498Z,99860.56
2023-04-13T12:05:29.383Z,99852.09
2023-04-13T12:08:00.864Z,99855.38
2023-04-13T12:10:38.983Z,99846.97
2023-04-13T12:16:05.261Z,99834.72
2023-04-13T12:18:43.694Z,99823.69
2023-04-13T12:21:16.379Z,99837.50
2023-04-13T12:23:55.307Z,99840.22
2023-04-13T12:27:09.953Z,99840.06
2023-04-13T12:29:15.420Z,99848.19
2023-04-13T12:31:45.775Z,99836.66
2023-04-13T12:34:13.852Z,99837.22
2023-04-13T12:36:41.805Z,99829.13
2023-04-13T12:39:11.412Z,99831.50
2023-04-13T12:41:39.455Z,99805.97
2023-04-13T12:44:07.575Z,99822.84
2023-04-13T12:46:36.231Z,99816.50
2023-04-13T12:49:04.422Z,99814.44
2023-04-13T12:51:33.124Z,99812.41
2023-04-13T12:54:01.530Z,99794.66
2023-04-13T12:56:33.578Z,99800.66
2023-04-13T12:59:02.177Z,99802.53
2023-04-13T13:01:30.489Z,99807.84
2023-04-13T13:03:58.590Z,99781.44
2023-04-13T13:06:27.881Z,99803.25
2023-04-13T13:08:55.800Z,99811.13
2023-04-13T13:11:23.836Z,99810.00
2023-04-13T13:13:53.428Z,99800.78
2023-04-13T13:16:21.617Z,99793.28
2023-04-13T13:18:51.209Z,99790.41
2023-04-13T13:21:21.245Z,99786.59
2023-04-13T13:23:49.458Z,99807.34
2023-04-13T13:28:48.720Z,99793.28
2023-04-13T13:31:18.027Z,99783.41
2023-04-13T13:33:46.036Z,99794.78
2023-04-13T13:36:14.877Z,99789.66
2023-04-13T13:38:43.464Z,99789.09
2023-04-13T13:41:11.692Z,99744.03
2023-04-13T13:43:40.032Z,99792.03
2023-04-13T13:46:08.371Z,99786.63
2023-04-13T13:48:37.785Z,99783.69
2023-04-13T13:51:07.474Z,99793.13
2023-04-13T13:53:35.956Z,99759.69
2023-04-13T13:56:05.166Z,99741.00
2023-04-13T13:58:33.393Z,99790.09
2023-04-13T14:01:01.523Z,99775.50
2023-04-13T14:03:29.792Z,99774.47
2023-04-13T14:05:59.470Z,99781.69
2023-04-13T14:08:27.906Z,99771.81
2023-04-13T14:10:56.246Z,99756.97
2023-04-13T14:13:24.479Z,99765.81
2023-04-13T14:15:52.972Z,99772.66
2023-04-13T14:18:20.965Z,99762.47
2023-04-13T14:20:49.016Z,99773.19
2023-04-13T14:23:18.953Z,99770.00
2023-04-13T14:25:47.031Z,99774.47
2023-04-13T14:28:15.216Z,99766.59
2023-04-13T14:30:43.183Z,99745.91
2023-04-13T14:33:13.726Z,99763.56
2023-04-13T14:35:41.884Z,99767.69
2023-04-13T14:38:10.118Z,99768.66
2023-04-13T14:40:39.550Z,99762.56
2023-04-13T14:43:07.910Z,99768.78
2023-04-13T14:45:36.020Z,99767.03
2023-04-13T14:48:04.220Z,99767.72
2023-04-13T14:50:32.262Z,99762.09
2023-04-13T14:53:00.192Z,99768.69
2023-04-13T14:55:28.072Z,99766.56
2023-04-13T14:57:59.869Z,99765.41
2023-04-13T15:00:39.043Z,99767.38
2023-04-13T15:03:08.386Z,99767.72
2023-04-13T15:05:38.688Z,99766.75
2023-04-13T15:08:07.552Z,99759.50
2023-04-13T15:10:35.983Z,99750.63
2023-04-13T15:13:06.445Z,99758.13
2023-04-13T15:15:35.990Z,99748.44
2023-04-13T15:18:05.847Z,99762.94
2023-04-13T15:20:34.073Z,99766.34
2023-04-13T15:23:02.042Z,99768.81
2023-04-13T15:25:30.190Z,99763.22
2023-04-13T15:27:59.593Z,99764.06
2023-04-13T15:30:30.761Z,99748.91
2023-04-13T15:33:02.326Z,99754.03
2023-04-13T15:35:31.458Z,99775.56
2023-04-13T15:38:02.324Z,99771.44
2023-04-13T15:40:33.846Z,99771.28
2023-04-13T15:43:02.009Z,99760.72
2023-04-13T15:45:31.781Z,99767.63
2023-04-13T15:47:59.974Z,99763.66
2023-04-13T15:50:28.193Z,99764.09
2023-04-13T15:52:57.156Z,99749.78
2023-04-13T15:55:25.317Z,99753.41
2023-04-13T15:57:53.964Z,99754.03
2023-04-13T16:00:22.348Z,99757.72
2023-04-13T16:02:52.025Z,99746.28
2023-04-13T16:05:20.229Z,99752.81
2023-04-13T16:07:48.366Z,99723.50
2023-04-13T16:10:17.148Z,99754.00
2023-04-13T16:12:45.611Z,99717.41
2023-04-13T16:15:14.058Z,99744.78
2023-04-13T16:17:44.231Z,99748.63
2023-04-13T16:20:21.269Z,99746.13
2023-04-13T16:22:53.084Z,99768.22
2023-04-13T16:25:21.463Z,99774.00
2023-04-13T16:27:50.028Z,99774.88
2023-04-13T16:30:20.960Z,99775.06
2023-04-13T16:32:51.365Z,99775.25
2023-04-13T16:35:20.852Z,99771.19
2023-04-13T16:37:48.844Z,99778.66
2023-04-13T16:40:17.218Z,99777.84
2023-04-13T16:42:46.164Z,99772.19
2023-04-13T16:45:15.652Z,99772.22
2023-04-13T16:47:43.964Z,99769.50
2023-04-13T16:50:13.430Z,99779.78
2023-04-13T16:52:42.878Z,99783.16
2023-04-13T16:55:14.778Z,99780.06
2023-04-13T16:57:43.811Z,99788.13
2023-04-13T17:00:13.052Z,99785.97
2023-04-13T17:02:42.759Z,99783.97
2023-04-13T17:05:12.624Z,99788.94
2023-04-13T17:07:43.548Z,99794.53
2023-04-13T17:10:12.983Z,99800.59
2023-04-13T17:12:41.567Z,99782.47
2023-04-13T17:15:10.761Z,99802.91
2023-04-13T17:17:39.039Z,99793.81
2023-04-13T17:20:08.471Z,99792.19
2023-04-13T17:22:36.463Z,99801.16
2023-04-13T17:25:06.911Z,99808.03
2023-04-13T17:27:34.852Z,99798.81
2023-04-13T17:30:02.954Z,99803.91
2023-04-13T17:32:30.926Z,99808.69
2023-04-13T17:34:58.856Z,99804.81
2023-04-13T17:37:27.046Z,99806.44
2023-04-13T17:39:54.959Z,99814.50
2023-04-13T17:42:24.312Z,99820.53
2023-04-13T17:44:52.401Z,99816.25
2023-04-13T17:47:20.327Z,99822.69
2023-04-13T17:49:48.239Z,99819.47
2023-04-13T17:52:16.306Z,99830.47
2023-04-13T17:54:44.482Z,99832.91
2023-04-13T17:57:12.429Z,99833.56
2023-04-13T17:59:43.129Z,99834.06
2023-04-13T18:02:11.149Z,99823.97
2023-04-13T18:04:39.180Z,99833.47
2023-04-13T18:07:07.422Z,99837.66
2023-04-13T18:09:35.388Z,99847.75
2023-04-13T18:12:03.565Z,99838.31
2023-04-13T18:14:31.535Z,99842.94
2023-04-13T18:17:00.823Z,99843.72
2023-04-13T18:19:30.564Z,99847.78
2023-04-13T18:21:58.494Z,99843.13
2023-04-13T18:24:26.537Z,99824.22
2023-04-13T18:26:54.426Z,99839.00
2023-04-13T18:29:22.334Z,99840.47
2023-04-13T18:31:50.458Z,99831.47
2023-04-13T18:34:19.874Z,99844.03
2023-04-13T18:36:47.814Z,99845.59
2023-04-13T18:39:15.746Z,99840.88
2023-04-13T18:41:43.675Z,99846.19
2023-04-13T18:44:11.608Z,99841.25
2023-04-13T18:46:39.582Z,99847.88
2023-04-13T18:49:07.679Z,99844.94
2023-04-13T18:51:37.032Z,99854.28
2023-04-13T18:54:05.083Z,99851.19
2023-04-13T18:56:33.042Z,99851.91
2023-04-13T18:59:00.985Z,99844.94
2023-04-13T19:01:28.972Z,99852.63
2023-04-13T19:03:57.310Z,99852.03
2023-04-13T19:06:26.415Z,99857.34
2023-04-13T19:08:55.702Z,99861.84
2023-04-13T19:11:27.527Z,99857.91
2023-04-13T19:13:56.009Z,99867.28
2023-04-13T19:16:24.343Z,99869.59
2023-04-13T19:18:52.310Z,99866.31
2023-04-13T19:21:23.906Z,99867.47
2023-04-13T19:23:51.924Z,99875.06
2023-04-13T19:26:21.309Z,99869.59
2023-04-13T19:28:49.216Z,99870.91
2023-04-13T19:31:17.602Z,99870.09
2023-04-13T19:33:46.502Z,99875.28
2023-04-13T19:36:14.452Z,99873.53
2023-04-13T19:38:45.031Z,99869.72
2023-04-13T19:41:13.172Z,99873.16
2023-04-13T19:43:42.438Z,99874.81
2023-04-13T19:46:10.401Z,99870.78
2023-04-13T19:48:38.714Z,99863.88
2023-04-13T19:51:06.840Z,99867.06
2023-04-13T19:53:36.777Z,99868.13
2023-04-13T19:56:05.918Z,99864.81
2023-04-13T19:58:34.156Z,99866.25
2023-04-13T20:01:06.323Z,99869.28
2023-04-13T20:03:34.524Z,99868.22
2023-04-13T20:06:02.823Z,99860.81
2023-04-13T20:08:30.964Z,99857.38
2023-04-13T20:10:59.910Z,99849.19
2023-04-13T20:13:27.979Z,99858.53
2023-04-13T20:15:56.149Z,99856.53
2023-04-13T20:18:25.478Z,99850.59
2023-04-13T20:20:53.377Z,99852.00
2023-04-13T20:23:21.585Z,99855.16
2023-04-13T20:25:49.514Z,99848.78
2023-04-13T20:28:17.884Z,99852.44
2023-04-13T20:30:45.842Z,99850.56
2023-04-13T20:33:13.818Z,99848.91
2023-04-13T20:35:43.260Z,99841.69
2023-04-13T20:38:13.957Z,99847.94
2023-04-13T20:40:45.676Z,99844.16
2023-04-13T20:43:15.822Z,99841.19
2023-04-13T20:45:45.398Z,99842.53
2023-04-13T20:50:48.073Z,99846.50
2023-04-13T20:53:17.397Z,99841.53
2023-04-13T20:55:45.396Z,99839.38
2023-04-13T20:58:13.308Z,99838.59
2023-04-13T21:00:42.552Z,99841.81
2023-04-13T21:03:10.604Z,99843.56
2023-04-13T21:05:38.679Z,99846.78
2023-04-13T21:08:08.092Z,99835.91
2023-04-13T21:10:36.112Z,99823.50
2023-04-13T21:13:04.044Z,99825.03
2023-04-13T21:15:31.975Z,99826.69
2023-04-13T21:17:59.923Z,99815.09
2023-04-13T21:20:27.961Z,99828.81
2023-04-13T21:22:55.934Z,99825.25
2023-04-13T21:25:26.749Z,99817.56
2023-04-13T21:27:54.782Z,99828.84
2023-04-13T21:30:22.686Z,99823.53
2023-04-13T21:32:50.605Z,99822.78
2023-04-13T21:35:18.727Z,99820.50
2023-04-13T21:37:46.652Z,99819.84
2023-04-13T21:40:14.679Z,99813.53
2023-04-13T21:42:45.109Z,99819.72
2023-04-13T21:45:13.149Z,99813.25
2023-04-13T21:47:41.108Z,99815.13
2023-04-13T21:50:09.954Z,99810.34
2023-04-13T21:52:37.901Z,99818.19
2023-04-13T21:55:06.600Z,99792.84
2023-04-13T21:57:34.508Z,99817.78
2023-04-13T22:00:06.380Z,99812.72
2023-04-13T22:02:34.671Z,99811.91
2023-04-13T22:05:02.653Z,99814.53
2023-04-13T22:07:41.786Z,99811.72
2023-04-13T22:10:11.451Z,99810.66
2023-04-13T22:12:39.427Z,99808.03
2023-04-13T22:15:09.653Z,99808.50
2023-04-13T22:17:37.726Z,99805.66
2023-04-13T22:20:06.470Z,99808.63
2023-04-13T22:22:34.395Z,99808.22
2023-04-13T22:25:02.293Z,99810.47
2023-04-13T22:27:30.195Z,99797.38
2023-04-13T22:29:58.132Z,99801.44
2023-04-13T22:32:28.492Z,99809.22
2023-04-13T22:34:56.443Z,99806.00
2023-04-13T22:37:24.470Z,99806.63
2023-04-13T22:39:52.388Z,99800.19
2023-04-13T22:42:20.474Z,99796.44
2023-04-13T22:44:48.433Z,99791.78
2023-04-13T22:47:16.343Z,99794.00
2023-04-13T22:49:45.764Z,99789.34
2023-04-13T22:52:13.860Z,99795.13
2023-04-13T22:54:41.790Z,99794.38
2023-04-13T22:57:09.701Z,99794.06
2023-04-13T22:59:37.604Z,99792.25
2023-04-13T23:02:05.740Z,99785.97
2023-04-13T23:04:33.928Z,99784.19
2023-04-13T23:07:03.295Z,99790.84
2023-04-13T23:09:31.273Z,99788.56
2023-04-13T23:11:59.876Z,99792.06
2023-04-13T23:14:28.908Z,99794.22
2023-04-13T23:16:56.852Z,99797.94
2023-04-13T23:19:24.755Z,99799.00
2023-04-13T23:21:52.663Z,99771.94
2023-04-13T23:24:21.964Z,99783.66
2023-04-13T23:26:49.871Z,99788.25
2023-04-13T23:29:19.859Z,99791.97
2023-04-13T23:31:47.918Z,99793.66
2023-04-13T23:34:15.864Z,99786.72
2023-04-13T23:36:43.880Z,99781.09
2023-04-13T23:39:11.763Z,99778.16
2023-04-13T23:41:41.226Z,99774.84
2023-04-13T23:44:09.140Z,99777.53
2023-04-13T23:46:37.225Z,99765.31
2023-04-13T23:49:05.192Z,99778.72
2023-04-13T23:51:33.104Z,99781.13
2023-04-13T23:54:01.074Z,99764.63
2023-04-13T23:56:28.980Z,99779.44
2023-04-13T23:58:58.367Z,99776.78
